createdAt,value
2017-11-14T17:04:08.867Z,9.46
2017-11-14T17:06:10.533Z,8.93
2017-11-14T17:08:12.165Z,8.71
2017-11-14T17:10:13.826Z,8.58
2017-11-14T17:12:15.046Z,8.53
2017-11-14T17:14:16.774Z,8.52
2017-11-14T17:16:18.545Z,8.48
2017-11-14T17:18:20.247Z,8.51
2017-11-14T17:20:21.998Z,8.51
2017-11-14T17:22:23.547Z,8.54
2017-11-14T17:24:25.093Z,8.54
2017-11-14T17:26:26.757Z,8.53
2017-11-14T17:28:28.319Z,8.56
2017-11-14T17:30:30.771Z,8.56
2017-11-14T17:32:32.523Z,8.52
2017-11-14T17:34:34.289Z,8.50
2017-11-14T17:36:36.567Z,8.48
2017-11-14T17:38:38.318Z,8.53
2017-11-14T17:40:39.970Z,8.53
2017-11-14T17:42:41.543Z,8.49
2017-11-14T17:44:43.122Z,8.52
2017-11-14T17:46:44.726Z,8.52
2017-11-14T17:48:46.429Z,8.57
2017-11-14T17:50:47.958Z,8.57
2017-11-14T17:52:49.684Z,8.59
2017-11-14T17:54:51.354Z,8.59
2017-11-14T17:56:52.828Z,8.59
2017-11-14T17:58:54.460Z,8.60
2017-11-14T18:00:56.015Z,8.60
2017-11-14T18:02:57.586Z,8.59
2017-11-14T18:04:59.299Z,8.60
2017-11-14T18:07:00.971Z,8.59
2017-11-14T18:09:03.432Z,8.60
2017-11-14T18:11:05.206Z,8.55
2017-11-14T18:13:07.399Z,8.57
2017-11-14T18:15:09.033Z,8.58
2017-11-14T18:17:10.778Z,8.58
2017-11-14T18:19:12.551Z,8.59
2017-11-14T18:21:14.189Z,8.61
2017-11-14T18:23:15.958Z,8.62
2017-11-14T18:25:17.598Z,8.62
2017-11-14T18:27:19.246Z,8.58
2017-11-14T18:29:21.120Z,8.57
2017-11-14T18:31:22.677Z,8.56
2017-11-14T18:33:24.237Z,8.59
2017-11-14T18:35:25.970Z,8.61
2017-11-14T18:37:27.726Z,8.61
2017-11-14T18:39:29.506Z,8.62
2017-11-14T18:41:31.256Z,8.58
2017-11-14T18:43:32.989Z,8.57
2017-11-14T18:45:34.770Z,8.61
2017-11-14T18:47:36.418Z,8.60
2017-11-14T18:49:38.070Z,8.65
2017-11-14T18:51:39.345Z,8.63
2017-11-14T18:53:41.018Z,8.64
2017-11-14T18:55:42.515Z,8.67
2017-11-14T18:57:44.251Z,8.66
2017-11-14T18:59:45.924Z,8.68
2017-11-14T19:01:48.391Z,8.67
2017-11-14T19:03:49.959Z,8.69
2017-11-14T19:05:51.389Z,8.68
2017-11-14T19:07:52.964Z,8.65
2017-11-14T19:09:54.624Z,8.66
2017-11-14T19:11:56.359Z,8.68
2017-11-14T19:13:58.012Z,8.68
2017-11-14T19:15:59.697Z,8.68
2017-11-14T19:18:01.218Z,8.65
2017-11-14T19:20:02.509Z,8.66
2017-11-14T19:22:04.044Z,8.71
2017-11-14T19:24:05.664Z,8.69
2017-11-14T19:26:07.169Z,8.67
2017-11-14T19:28:08.784Z,8.64
2017-11-14T19:30:10.235Z,8.65
2017-11-14T19:32:11.772Z,8.69
2017-11-14T19:34:13.349Z,8.66
2017-11-14T19:36:14.907Z,8.67
2017-11-14T19:38:16.556Z,8.68
2017-11-14T19:40:18.126Z,8.71
2017-11-14T19:42:19.544Z,8.75
2017-11-14T19:44:21.306Z,8.77
2017-11-14T19:46:22.947Z,8.76
2017-11-14T19:48:24.607Z,8.75
2017-11-14T19:50:26.264Z,8.69
2017-11-14T19:52:28.020Z,8.73
2017-11-14T19:54:29.745Z,8.77
2017-11-14T19:56:31.138Z,8.78
2017-11-14T19:58:32.773Z,8.80
2017-11-14T20:00:34.216Z,8.81
2017-11-14T20:02:35.754Z,8.81
2017-11-14T20:04:37.141Z,8.82
2017-11-14T20:06:38.705Z,8.80
2017-11-14T20:08:40.321Z,8.81
2017-11-14T20:10:41.888Z,8.81
2017-11-14T20:12:43.621Z,8.80
2017-11-14T20:14:45.197Z,8.81
2017-11-14T20:16:46.857Z,8.79
2017-11-14T20:18:48.690Z,8.81
2017-11-14T20:20:50.352Z,8.81
2017-11-14T20:22:51.825Z,8.80
2017-11-14T20:24:53.363Z,8.80
2017-11-14T20:26:55.024Z,8.81
2017-11-14T20:28:56.680Z,8.80
2017-11-14T20:30:58.234Z,8.80
2017-11-14T20:32:59.886Z,8.76
2017-11-14T20:35:01.766Z,8.79
2017-11-14T20:37:03.402Z,8.78
2017-11-14T20:39:05.345Z,8.82
2017-11-14T20:41:06.903Z,8.80
2017-11-14T20:43:08.371Z,8.80
2017-11-14T20:45:10.025Z,8.82
2017-11-14T20:47:11.776Z,8.81
2017-11-14T20:49:13.411Z,8.80
2017-11-14T20:51:14.966Z,8.81
2017-11-14T20:53:16.602Z,8.81
2017-11-14T20:55:18.279Z,8.80
2017-11-14T20:57:19.776Z,8.80
2017-11-14T20:59:21.199Z,8.78
2017-11-14T21:01:22.839Z,8.77
2017-11-14T21:03:24.482Z,8.79
2017-11-14T21:05:26.145Z,8.81
2017-11-14T21:07:28.639Z,8.79
2017-11-14T21:09:30.285Z,8.78
2017-11-14T21:11:31.967Z,8.78
2017-11-14T21:13:33.572Z,8.81
2017-11-14T21:15:35.178Z,8.82
2017-11-14T21:17:36.769Z,8.82
2017-11-14T21:19:38.317Z,8.84
2017-11-14T21:21:39.901Z,8.86
2017-11-14T21:23:41.348Z,8.86
2017-11-14T21:25:42.766Z,8.86
2017-11-14T21:27:44.350Z,8.85
2017-11-14T21:29:46.015Z,8.85
2017-11-14T21:31:47.672Z,8.85
2017-11-14T21:33:49.200Z,8.86
2017-11-14T21:35:51.078Z,8.86
2017-11-14T21:37:52.827Z,8.86
2017-11-14T21:39:54.576Z,8.87
2017-11-14T21:41:56.146Z,8.86
2017-11-14T21:43:57.674Z,8.86
2017-11-14T21:45:59.038Z,8.86
2017-11-14T21:48:00.632Z,8.87
2017-11-14T21:50:02.118Z,8.85
2017-11-14T21:52:03.392Z,8.86
2017-11-14T21:54:05.241Z,8.87
2017-11-14T21:56:06.905Z,8.86
2017-11-14T21:58:08.442Z,8.86
2017-11-14T22:00:10.008Z,8.86
2017-11-14T22:02:11.758Z,8.86
2017-11-14T22:04:13.297Z,8.87
2017-11-14T22:06:14.758Z,8.87
2017-11-14T22:08:16.417Z,8.87
2017-11-14T22:10:17.872Z,8.90
2017-11-14T22:12:19.511Z,8.90
2017-11-14T22:14:21.171Z,8.91
2017-11-14T22:16:23.564Z,8.90
2017-11-14T22:18:25.110Z,8.89
2017-11-14T22:20:26.729Z,8.89
2017-11-14T22:22:28.405Z,8.92
2017-11-14T22:24:30.071Z,8.94
2017-11-14T22:26:31.734Z,8.95
2017-11-14T22:28:33.373Z,8.94
2017-11-14T22:30:35.037Z,8.95
2017-11-14T22:32:36.665Z,8.93
2017-11-14T22:34:38.103Z,8.92
2017-11-14T22:36:39.670Z,8.94
2017-11-14T22:38:41.221Z,8.93
2017-11-14T22:40:43.603Z,8.92
2017-11-14T22:42:45.046Z,8.95
2017-11-14T22:44:46.610Z,8.95
2017-11-14T22:46:47.948Z,8.95
2017-11-14T22:48:49.338Z,8.94
2017-11-14T22:50:50.751Z,8.95
2017-11-14T22:52:52.427Z,8.93
2017-11-14T22:54:53.964Z,8.88
2017-11-14T22:56:55.395Z,8.93
2017-11-14T22:58:56.859Z,8.91
2017-11-14T23:00:58.506Z,8.87
2017-11-14T23:02:59.943Z,8.89
2017-11-14T23:05:01.296Z,8.92
2017-11-14T23:07:03.163Z,8.94
2017-11-14T23:09:04.709Z,8.90
2017-11-14T23:11:07.074Z,8.92
2017-11-14T23:13:11.826Z,8.94
2017-11-14T23:15:13.471Z,8.93
2017-11-14T23:17:14.924Z,8.90
2017-11-14T23:19:16.661Z,8.92
2017-11-14T23:21:18.232Z,8.92
2017-11-14T23:23:19.879Z,8.92
2017-11-14T23:25:21.313Z,8.91
2017-11-14T23:27:22.890Z,8.89
2017-11-14T23:29:24.437Z,8.89
2017-11-14T23:31:26.095Z,8.91
2017-11-14T23:33:27.658Z,8.90
2017-11-14T23:35:29.406Z,8.90
2017-11-14T23:37:30.860Z,8.91
2017-11-14T23:39:32.515Z,8.89
2017-11-14T23:41:34.103Z,8.88
2017-11-14T23:43:35.730Z,8.90
2017-11-14T23:45:37.261Z,8.88
2017-11-14T23:47:38.625Z,8.88
2017-11-14T23:49:40.873Z,8.88
2017-11-14T23:51:42.226Z,8.88
2017-11-14T23:53:43.987Z,8.90
2017-11-14T23:55:45.552Z,8.88
2017-11-14T23:57:47.185Z,8.89
2017-11-14T23:59:48.644Z,8.90
